SBCP/CAW METAR and TAF weather

Enter ICAO airport designator
Station Type Date Time Source
SBCP METAR 2019/08/18 23:00 UTC NOAA

SBCP 182300Z 09006KT CAVOK 22/19 Q1014


Station Type Date Time Source
SBCP Decoded METAR 2019/08/18 23:00 UTC NOAA

Station name not available
Aug 18, 2019 - 07:00 PM EDT / 2019.08.18 2300 UTC
Wind: from the E (090 degrees) at 7 MPH (6 KT):0
Visibility: greater than 7 mile(s):0
Temperature: 71 F (22 C)
Dew Point: 66 F (19 C)
Relative Humidity: 83%
Pressure (altimeter): 29.94 in. Hg (1014 hPa)
ob: SBCP 182300Z 09006KT CAVOK 22/19 Q1014
cycle: 23

Station Type Date Time Source
SBCP TAF 2019/08/19 06:46 UTC NOAA

TAF SBCP 190445Z 1906/1918 01005KT CAVOK TN19/1910Z TX31/1917Z
BECMG 1907/1908 32007KT
BECMG 1910/1912 26010KT 9999 FEW030
BECMG 1913/1915 23015KT
BECMG 1916/1917 20020KT SCT025
RMK PGB

Example: see airport list